Time;durP1;ratioP1;P1;durP2;ratioP2;P2;SDS_P1;SDS_P2;PMS_P1;PMS_P2;Temp;Humidity;BMP_temperature;BMP_pressure;BME280_temperature;BME280_humidity;BME280_pressure;Samples;Min_cycle;Max_cycle;Signal;HPM_P1;HPM_P2
2022/04/21 00:07:28;;;;;;;34.08;6.78;;;14.90;99.90;;;;;;6300354;22;20115;-89
2022/04/21 00:09:54;;;;;;;23.15;6.40;;;14.90;99.90;;;;;;6273388;22;20053;-84
2022/04/21 00:12:21;;;;;;;26.38;5.10;;;14.90;99.90;;;;;;6256766;22;20011;-84
2022/04/21 00:14:48;;;;;;;31.80;5.43;;;14.90;99.90;;;;;;6282574;22;20329;-85
2022/04/21 00:17:14;;;;;;;37.10;5.00;;;14.90;99.90;;;;;;6282514;22;20007;-84
2022/04/21 00:19:41;;;;;;;27.70;5.80;;;14.90;99.90;;;;;;6282328;22;20044;-84
2022/04/21 00:24:53;;;;;;;26.88;4.95;;;14.90;99.90;;;;;;6308036;22;20014;-84
2022/04/21 00:27:19;;;;;;;25.80;5.13;;;14.90;99.90;;;;;;6282260;22;20060;-84
2022/04/21 00:29:46;;;;;;;31.85;5.95;;;14.90;99.90;;;;;;6282111;22;20007;-84
2022/04/21 00:32:15;;;;;;;23.58;5.28;;;14.90;99.90;;;;;;6281888;22;20003;-83
2022/04/21 00:34:42;;;;;;;33.17;5.93;;;15.00;99.90;;;;;;6307913;22;20013;-84
2022/04/21 00:37:10;;;;;;;25.63;4.88;;;15.00;99.90;;;;;;6307757;22;20052;-84
2022/04/21 00:39:38;;;;;;;26.55;5.03;;;15.00;99.90;;;;;;6282166;22;20090;-84
2022/04/21 00:42:05;;;;;;;27.02;5.05;;;15.00;99.90;;;;;;6282057;22;20019;-84
2022/04/21 00:44:33;;;;;;;23.33;5.55;;;14.90;99.90;;;;;;6256710;22;20053;-84
2022/04/21 00:47:05;;;;;;;33.00;6.35;;;15.00;99.90;;;;;;6282073;22;20007;-84
2022/04/21 00:49:33;;;;;;;29.38;4.93;;;14.90;99.90;;;;;;6281881;22;20018;-84
2022/04/21 00:52:01;;;;;;;24.75;5.35;;;14.90;99.90;;;;;;6256379;22;20027;-84
2022/04/21 00:54:32;;;;;;;34.50;5.95;;;14.90;99.90;;;;;;6256537;22;20007;-83
2022/04/21 00:57:05;;;;;;;33.58;6.15;;;14.90;99.90;;;;;;6281930;22;20011;-84
2022/04/21 00:59:34;;;;;;;26.52;4.68;;;15.00;99.90;;;;;;6256618;22;20011;-84
2022/04/21 01:04:49;;;;;;;22.48;5.68;;;14.90;99.90;;;;;;6307508;22;20197;-85
2022/04/21 01:07:20;;;;;;;26.33;4.93;;;15.00;99.90;;;;;;6281964;22;20072;-84
2022/04/21 01:09:46;;;;;;;20.83;5.40;;;15.00;99.90;;;;;;6281664;22;20090;-84
2022/04/21 01:12:14;;;;;;;19.27;5.18;;;15.00;99.90;;;;;;6256316;22;20015;-83
2022/04/21 01:14:40;;;;;;;22.13;5.53;;;15.00;99.90;;;;;;6281743;22;20555;-84
2022/04/21 01:17:09;;;;;;;26.45;5.45;;;15.00;99.90;;;;;;6281827;22;20004;-84
2022/04/21 01:19:35;;;;;;;21.58;6.10;;;15.00;99.90;;;;;;6256304;22;20007;-84
2022/04/21 01:22:02;;;;;;;27.52;5.43;;;15.00;99.90;;;;;;6281726;22;20011;-83
2022/04/21 01:24:29;;;;;;;24.05;6.07;;;14.90;99.90;;;;;;6281828;22;20037;-83
2022/04/21 01:26:57;;;;;;;32.63;6.38;;;14.90;99.90;;;;;;6256255;22;20010;-84
2022/04/21 01:29:24;;;;;;;32.53;6.13;;;14.90;99.90;;;;;;6255944;22;20010;-84
2022/04/21 01:31:51;;;;;;;30.48;6.68;;;14.90;99.90;;;;;;6281473;22;20011;-83
2022/04/21 01:34:17;;;;;;;23.83;6.10;;;14.90;99.90;;;;;;6281464;22;20094;-84
2022/04/21 01:42:18;;;;;;;24.48;5.50;;;14.90;99.90;;;;;;6307390;22;20060;-84
2022/04/21 01:44:45;;;;;;;22.65;6.28;;;14.90;99.90;;;;;;6307471;22;20026;-84
2022/04/21 01:47:12;;;;;;;22.95;5.72;;;14.90;99.90;;;;;;6281758;22;20003;-84
2022/04/21 01:49:38;;;;;;;31.77;6.40;;;15.00;99.90;;;;;;6281444;22;20007;-84
2022/04/21 01:52:08;;;;;;;24.67;6.05;;;15.00;99.90;;;;;;6307122;22;20008;-84
2022/04/21 01:54:35;;;;;;;33.50;6.57;;;15.00;99.90;;;;;;6281721;22;20010;-85
2022/04/21 01:57:01;;;;;;;37.30;6.28;;;15.00;99.90;;;;;;6280963;22;20007;-84
2022/04/21 01:59:28;;;;;;;27.10;5.78;;;15.00;99.90;;;;;;6281089;22;20450;-85
2022/04/21 02:01:54;;;;;;;27.15;6.68;;;15.00;99.90;;;;;;6281283;22;20092;-84
2022/04/21 02:04:21;;;;;;;33.20;5.72;;;15.00;99.90;;;;;;6307085;22;20011;-84
2022/04/21 02:06:53;;;;;;;23.27;6.13;;;15.00;99.90;;;;;;6281408;22;20003;-85
2022/04/21 02:09:20;;;;;;;27.00;6.25;;;15.00;99.90;;;;;;6301391;22;20019;-84
2022/04/21 02:11:51;;;;;;;28.85;5.53;;;15.00;99.90;;;;;;6307237;22;20007;-84
2022/04/21 02:14:17;;;;;;;33.83;6.60;;;15.00;99.90;;;;;;6333832;22;20004;-85
2022/04/21 02:16:44;;;;;;;38.55;6.60;;;15.00;99.90;;;;;;6307224;22;20003;-84
2022/04/21 02:19:11;;;;;;;27.00;6.80;;;15.00;99.90;;;;;;6307124;22;20015;-84
2022/04/21 02:21:38;;;;;;;30.58;6.28;;;15.00;99.90;;;;;;6306970;22;20011;-85
2022/04/21 02:24:05;;;;;;;24.55;5.90;;;15.00;99.90;;;;;;6307132;22;20056;-85
2022/04/21 02:26:35;;;;;;;32.05;7.22;;;15.10;99.90;;;;;;6281547;22;20033;-84
2022/04/21 02:29:02;;;;;;;32.88;7.05;;;15.10;99.90;;;;;;6306864;22;20011;-85
2022/04/21 02:31:28;;;;;;;27.50;6.07;;;15.00;99.90;;;;;;6281472;22;20056;-84
2022/04/21 02:33:55;;;;;;;27.48;6.70;;;15.10;99.90;;;;;;6281588;22;20007;-85
2022/04/21 02:36:22;;;;;;;35.38;6.45;;;15.10;99.90;;;;;;6333322;22;20007;-85
2022/04/21 02:38:48;;;;;;;40.90;6.63;;;15.10;99.90;;;;;;6281583;22;20027;-84
2022/04/21 02:41:16;;;;;;;26.45;6.18;;;15.10;99.90;;;;;;6307130;22;20157;-85
2022/04/21 02:43:43;;;;;;;32.78;6.07;;;15.00;99.90;;;;;;6307178;22;20424;-85
2022/04/21 02:46:09;;;;;;;35.85;6.32;;;15.00;99.90;;;;;;6306989;22;20007;-85
2022/04/21 02:48:36;;;;;;;33.03;7.07;;;15.10;99.90;;;;;;6307130;22;20061;-85
2022/04/21 02:51:03;;;;;;;24.95;6.25;;;15.00;99.90;;;;;;6307354;22;20046;-84
2022/04/21 02:59:00;;;;;;;35.42;6.38;;;15.10;99.90;;;;;;6333139;22;20003;-85
2022/04/21 03:01:28;;;;;;;30.92;5.88;;;15.00;99.90;;;;;;6307033;22;20015;-84
2022/04/21 03:03:54;;;;;;;26.08;6.13;;;15.00;99.90;;;;;;6281264;22;20074;-84
2022/04/21 03:06:22;;;;;;;22.23;5.97;;;15.00;99.90;;;;;;6332920;22;20011;-84
2022/04/21 03:08:48;;;;;;;26.60;7.22;;;15.00;99.90;;;;;;6307967;22;20019;-83
2022/04/21 03:11:15;;;;;;;29.13;6.55;;;15.00;99.90;;;;;;6309116;22;20061;-84
2022/04/21 03:13:41;;;;;;;36.97;7.03;;;15.10;99.90;;;;;;6308809;22;20003;-84
2022/04/21 03:16:08;;;;;;;33.65;5.80;;;15.10;99.90;;;;;;6308617;22;20057;-85
2022/04/21 03:18:34;;;;;;;25.85;5.88;;;15.00;99.90;;;;;;6308802;22;20007;-83
2022/04/21 03:26:31;;;;;;;34.13;7.53;;;15.10;99.90;;;;;;6334468;22;20011;-84
2022/04/21 03:28:58;;;;;;;30.48;6.75;;;15.10;99.90;;;;;;6283050;22;20012;-84
2022/04/21 03:31:24;;;;;;;30.83;5.88;;;15.10;99.90;;;;;;6308551;22;20011;-84
2022/04/21 03:33:51;;;;;;;25.50;5.97;;;15.00;99.90;;;;;;6308708;22;20079;-85
2022/04/21 03:36:17;;;;;;;29.85;6.15;;;15.10;99.90;;;;;;6308261;22;20011;-85
2022/04/21 03:38:47;;;;;;;21.25;5.60;;;15.10;99.90;;;;;;6308489;22;20011;-86
2022/04/21 03:41:14;;;;;;;30.77;5.82;;;15.10;99.90;;;;;;6308433;22;20437;-85
2022/04/21 03:43:43;;;;;;;25.05;6.25;;;15.10;99.90;;;;;;6308596;22;20035;-87
2022/04/21 03:46:13;;;;;;;29.23;6.13;;;15.10;99.90;;;;;;6308768;22;20007;-87
2022/04/21 03:48:40;;;;;;;33.92;6.25;;;15.20;99.90;;;;;;6308625;22;20011;-87
2022/04/21 03:51:08;;;;;;;26.15;6.78;;;15.10;99.90;;;;;;6308394;22;20004;-86
2022/04/21 03:53:34;;;;;;;33.58;6.20;;;15.00;99.90;;;;;;6334497;22;20008;-84
2022/04/21 03:56:01;;;;;;;23.88;5.70;;;15.10;99.90;;;;;;6308253;22;20013;-84
2022/04/21 03:58:28;;;;;;;31.48;6.55;;;15.00;99.90;;;;;;6257306;22;20011;-84
2022/04/21 04:00:57;;;;;;;30.58;5.70;;;15.10;99.90;;;;;;6282312;22;20086;-84
2022/04/21 04:03:24;;;;;;;39.65;6.38;;;15.10;99.90;;;;;;6334232;22;20003;-83
2022/04/21 04:05:50;;;;;;;26.63;5.75;;;15.10;99.90;;;;;;6308572;22;20003;-85
2022/04/21 04:11:01;;;;;;;32.65;6.93;;;15.00;99.90;;;;;;6334004;22;20011;-83
2022/04/21 04:13:28;;;;;;;22.70;5.18;;;15.10;99.90;;;;;;6282566;22;20086;-86
2022/04/21 04:15:56;;;;;;;25.13;5.15;;;15.00;99.90;;;;;;6333649;22;20011;-83
2022/04/21 04:18:23;;;;;;;23.88;5.63;;;15.00;99.90;;;;;;6282313;22;20003;-86
2022/04/21 04:20:50;;;;;;;30.95;5.80;;;15.00;99.90;;;;;;6307913;22;20080;-85
2022/04/21 04:23:18;;;;;;;30.75;5.55;;;15.00;99.90;;;;;;6334344;22;20004;-83
2022/04/21 04:25:46;;;;;;;29.05;5.75;;;15.00;99.90;;;;;;6307954;22;20003;-82
2022/04/21 04:28:13;;;;;;;30.45;5.82;;;15.00;99.90;;;;;;6309207;22;20003;-82
2022/04/21 04:30:40;;;;;;;28.83;5.72;;;15.00;99.90;;;;;;6333353;22;20014;-82
2022/04/21 04:33:08;;;;;;;26.90;5.00;;;14.90;99.90;;;;;;6281594;22;20456;-82
2022/04/21 04:35:35;;;;;;;28.42;5.90;;;15.00;99.90;;;;;;6307681;22;20050;-82
2022/04/21 04:38:05;;;;;;;25.80;5.38;;;15.00;99.90;;;;;;6307248;22;20011;-82
2022/04/21 04:40:32;;;;;;;25.17;5.65;;;14.90;99.90;;;;;;6307129;22;20333;-82
2022/04/21 04:42:58;;;;;;;23.83;6.50;;;15.00;99.90;;;;;;6333448;22;20003;-82
2022/04/21 04:48:10;;;;;;;28.02;6.35;;;15.00;99.90;;;;;;6333190;22;20011;-82
2022/04/21 04:50:37;;;;;;;34.38;6.57;;;15.00;99.90;;;;;;6305697;22;20046;-81
2022/04/21 04:53:03;;;;;;;27.95;6.72;;;15.00;99.90;;;;;;6280383;22;20019;-81
2022/04/21 04:55:30;;;;;;;31.52;6.22;;;15.00;99.90;;;;;;6306116;22;20007;-81
2022/04/21 04:57:57;;;;;;;21.60;5.97;;;15.00;99.90;;;;;;6332208;22;20031;-83
2022/04/21 05:00:24;;;;;;;30.77;5.85;;;15.00;99.90;;;;;;6305940;22;20027;-82
2022/04/21 05:02:51;;;;;;;20.38;5.28;;;15.00;99.90;;;;;;6306314;22;20081;-82
2022/04/21 05:05:18;;;;;;;25.58;6.40;;;15.00;99.90;;;;;;6280237;22;20037;-81
2022/04/21 05:07:45;;;;;;;36.88;6.35;;;15.00;99.90;;;;;;6306253;22;20792;-85
2022/04/21 05:10:12;;;;;;;30.08;5.93;;;15.00;99.90;;;;;;6255746;22;20007;-83
2022/04/21 05:12:39;;;;;;;24.48;5.43;;;15.00;99.90;;;;;;6280656;22;20011;-83
2022/04/21 05:15:06;;;;;;;22.27;5.10;;;15.00;99.90;;;;;;6255318;22;20003;-82
2022/04/21 05:17:33;;;;;;;27.25;5.72;;;15.00;99.90;;;;;;6280860;22;20048;-83
2022/04/21 05:20:00;;;;;;;32.90;5.55;;;15.00;99.90;;;;;;6255344;22;20007;-83
2022/04/21 05:22:37;;;;;;;24.88;5.90;;;15.00;99.90;;;;;;6255405;22;20050;-82
2022/04/21 05:25:13;;;;;;;27.38;5.45;;;15.00;99.90;;;;;;6280561;22;20060;-83
2022/04/21 05:27:41;;;;;;;31.77;5.88;;;15.00;99.90;;;;;;6254993;22;20039;-82
2022/04/21 05:32:58;;;;;;;24.75;5.75;;;15.00;99.90;;;;;;6308890;22;20008;-83
2022/04/21 05:35:25;;;;;;;24.70;5.07;;;15.00;99.90;;;;;;6256304;22;20013;-85
2022/04/21 05:37:52;;;;;;;24.35;5.30;;;15.10;99.90;;;;;;6255917;22;20141;-82
2022/04/21 05:40:19;;;;;;;28.85;5.88;;;15.10;99.90;;;;;;6255637;22;20432;-83
2022/04/21 05:42:49;;;;;;;24.42;5.05;;;15.10;99.90;;;;;;6255714;22;20471;-83
2022/04/21 05:45:16;;;;;;;22.10;5.35;;;15.10;99.90;;;;;;6281421;22;20012;-85
2022/04/21 05:47:46;;;;;;;24.58;4.97;;;15.10;99.90;;;;;;6255727;22;20012;-82
2022/04/21 05:50:14;;;;;;;19.75;5.30;;;15.10;99.90;;;;;;6281036;22;20468;-83
2022/04/21 05:52:43;;;;;;;21.65;5.93;;;15.20;99.90;;;;;;6255344;22;20011;-81
2022/04/21 05:55:11;;;;;;;20.70;4.88;;;15.20;99.90;;;;;;6307663;22;20003;-82
2022/04/21 05:57:40;;;;;;;20.52;4.85;;;15.20;99.90;;;;;;6280625;22;20031;-81
2022/04/21 06:00:08;;;;;;;19.90;4.85;;;15.20;99.90;;;;;;6280912;22;20026;-81
2022/04/21 06:02:41;;;;;;;24.00;4.65;;;15.20;99.90;;;;;;6279992;22;20023;-74
2022/04/21 06:19:56;;;;;;;22.35;4.38;;;15.30;99.90;;;;;;6323417;22;20105;-91
2022/04/21 06:22:22;;;;;;;25.08;4.78;;;15.30;99.90;;;;;;6290530;22;20023;-92
2022/04/21 06:24:54;;;;;;;23.08;4.30;;;15.40;99.90;;;;;;6287517;22;20024;-93
2022/04/21 06:27:21;;;;;;;23.73;4.93;;;15.30;99.90;;;;;;6313768;22;20023;-94
2022/04/21 06:29:48;;;;;;;22.70;4.20;;;15.40;99.90;;;;;;6312650;22;20010;-95
2022/04/21 06:32:18;;;;;;;18.30;3.80;;;15.40;99.90;;;;;;6312532;22;20007;-94
2022/04/21 06:34:45;;;;;;;22.55;5.90;;;15.50;99.90;;;;;;6252844;22;20076;-95
2022/04/21 06:37:12;;;;;;;16.58;4.25;;;15.50;99.90;;;;;;6281628;22;20003;-91
2022/04/21 06:39:48;;;;;;;21.42;4.38;;;15.70;99.90;;;;;;6281876;22;20011;-95
2022/04/21 06:42:18;;;;;;;19.13;4.43;;;15.70;99.90;;;;;;6282766;22;20090;-96
2022/04/21 06:50:18;;;;;;;25.98;4.10;;;15.80;99.90;;;;;;6282843;22;20011;-94
2022/04/21 06:52:48;;;;;;;21.70;3.80;;;15.70;99.90;;;;;;6254432;22;20003;-94
2022/04/21 06:55:19;;;;;;;23.00;3.67;;;15.70;99.90;;;;;;6284146;22;20042;-94
2022/04/21 06:58:02;;;;;;;20.42;4.28;;;15.70;99.90;;;;;;6260143;22;20003;-91
2022/04/21 07:00:32;;;;;;;21.38;4.88;;;15.80;99.90;;;;;;6283852;22;20086;-95
2022/04/21 07:03:08;;;;;;;20.88;4.55;;;15.70;99.90;;;;;;6256134;22;20015;-95
2022/04/21 07:05:35;;;;;;;17.33;3.40;;;15.80;99.90;;;;;;6283043;22;20111;-94
2022/04/21 07:08:10;;;;;;;15.68;4.05;;;15.80;99.90;;;;;;6283126;22;20007;-93
2022/04/21 07:10:37;;;;;;;15.50;3.70;;;15.80;99.90;;;;;;6283424;22;20082;-93
2022/04/21 07:13:11;;;;;;;21.30;4.40;;;15.80;99.90;;;;;;6282876;22;20011;-95
2022/04/21 07:15:40;;;;;;;26.05;4.32;;;15.80;99.90;;;;;;6283274;22;20003;-90
2022/04/21 07:18:09;;;;;;;29.48;7.70;;;15.90;99.90;;;;;;6257993;22;20013;-93
2022/04/21 07:23:04;;;;;;;29.63;7.45;;;16.00;99.90;;;;;;6312982;22;20074;-92
2022/04/21 07:25:32;;;;;;;34.88;7.68;;;16.10;99.90;;;;;;6243909;22;20090;-95
2022/04/21 07:28:03;;;;;;;28.63;3.75;;;16.30;99.90;;;;;;6253391;22;20004;-94
2022/04/21 07:30:30;;;;;;;17.35;3.80;;;16.30;99.90;;;;;;6225876;22;20041;-84
2022/04/21 07:32:57;;;;;;;21.23;4.38;;;16.40;99.90;;;;;;6252277;22;20011;-86
2022/04/21 07:35:25;;;;;;;22.88;5.03;;;16.50;99.90;;;;;;6226447;22;20038;-87
2022/04/21 07:37:52;;;;;;;12.48;3.30;;;16.20;99.90;;;;;;6251712;22;20004;-86
2022/04/21 07:40:20;;;;;;;27.80;4.80;;;16.20;99.90;;;;;;6251854;22;20023;-86
2022/04/21 07:42:47;;;;;;;18.02;3.83;;;16.30;99.90;;;;;;6251529;22;20065;-87
2022/04/21 07:45:15;;;;;;;20.70;3.75;;;16.50;99.90;;;;;;6251456;22;20061;-87
2022/04/21 07:47:42;;;;;;;19.95;3.88;;;16.60;99.90;;;;;;6251769;22;20007;-87
2022/04/21 07:50:09;;;;;;;14.35;3.70;;;16.60;99.90;;;;;;6226256;22;20046;-86
2022/04/21 07:55:27;;;;;;;12.73;3.40;;;16.90;99.90;;;;;;6251242;22;20007;-85
2022/04/21 07:57:56;;;;;;;15.82;3.30;;;16.90;99.90;;;;;;6251420;22;20004;-85
2022/04/21 08:00:24;;;;;;;16.20;3.22;;;17.10;99.90;;;;;;6226499;22;20008;-85
2022/04/21 08:02:52;;;;;;;17.35;3.47;;;17.40;99.90;;;;;;6251185;22;20038;-87
2022/04/21 08:05:21;;;;;;;16.83;3.63;;;17.60;99.90;;;;;;6251379;22;20012;-85
2022/04/21 08:07:49;;;;;;;15.57;3.03;;;17.70;99.90;;;;;;6251408;22;20011;-85
2022/04/21 08:10:16;;;;;;;19.25;3.53;;;17.70;99.90;;;;;;6251344;22;20468;-87
2022/04/21 08:12:49;;;;;;;16.73;3.08;;;18.10;99.90;;;;;;6226464;22;20007;-87
2022/04/21 08:15:26;;;;;;;17.27;3.30;;;17.70;99.90;;;;;;6251343;22;20035;-87
2022/04/21 08:17:55;;;;;;;15.65;4.18;;;17.80;99.90;;;;;;6276959;22;20031;-87
2022/04/21 08:20:23;;;;;;;17.83;3.92;;;17.70;99.90;;;;;;6251538;22;20094;-88
2022/04/21 08:22:50;;;;;;;15.23;2.95;;;17.40;99.90;;;;;;6274026;22;20016;-91
2022/04/21 08:33:36;;;;;;;15.70;2.72;;;17.10;99.90;;;;;;6276926;22;20437;-88
2022/04/21 08:36:05;;;;;;;15.73;3.47;;;17.30;99.90;;;;;;6251727;22;20061;-87
2022/04/21 08:38:33;;;;;;;60.90;25.75;;;17.30;99.90;;;;;;6251747;22;20061;-87
2022/04/21 08:41:05;;;;;;;38.72;14.55;;;17.30;99.90;;;;;;6302643;22;20011;-86
2022/04/21 08:43:36;;;;;;;35.08;11.45;;;17.20;99.90;;;;;;6302737;22;20023;-87
2022/04/21 08:46:04;;;;;;;22.80;7.55;;;17.00;99.90;;;;;;6302506;22;20376;-87
2022/04/21 08:48:34;;;;;;;22.50;4.20;;;17.10;99.90;;;;;;6251651;22;20003;-86
2022/04/21 08:51:02;;;;;;;17.23;3.97;;;17.10;99.90;;;;;;6251398;22;20429;-87
2022/04/21 08:53:31;;;;;;;15.00;3.45;;;17.50;99.90;;;;;;6250241;22;20008;-87
2022/04/21 08:55:58;;;;;;;25.23;6.82;;;17.50;99.90;;;;;;6250166;22;20065;-86
2022/04/21 08:58:26;;;;;;;33.63;13.88;;;17.50;99.90;;;;;;6250307;22;20113;-87
2022/04/21 09:00:54;;;;;;;20.23;3.63;;;17.50;99.90;;;;;;6301590;22;20071;-89
2022/04/21 09:03:22;;;;;;;25.27;6.30;;;17.60;99.90;;;;;;6250250;22;20015;-88
2022/04/21 09:05:49;;;;;;;20.40;5.53;;;18.00;99.90;;;;;;6249493;22;20004;-86
2022/04/21 09:08:26;;;;;;;16.77;5.63;;;18.10;99.90;;;;;;6249917;22;20350;-89
2022/04/21 09:11:05;;;;;;;33.50;10.57;;;18.20;99.90;;;;;;6248193;22;20043;-94
2022/04/21 09:13:39;;;;;;;18.23;3.38;;;18.40;99.90;;;;;;6275802;22;20015;-91
2022/04/21 09:16:11;;;;;;;15.35;3.22;;;18.30;99.90;;;;;;6251135;22;20042;-92
2022/04/21 09:18:43;;;;;;;17.35;3.75;;;18.20;99.90;;;;;;6251287;22;20077;-92
2022/04/21 09:21:53;;;;;;;;;;;;;;;;;;;;;
2022/04/21 09:51:47;;;;;;;17.52;3.28;;;18.10;99.90;;;;;;5994795;24;20076;-94
2022/04/21 10:01:55;;;;;;;17.40;3.78;;;18.40;99.90;;;;;;5966834;24;20020;-94
2022/04/21 10:04:43;;;;;;;11.80;2.83;;;18.10;99.90;;;;;;6000955;23;20080;-94
2022/04/21 10:07:42;;;;;;;16.13;2.90;;;17.90;99.90;;;;;;6020525;23;20387;-94
2022/04/21 10:10:45;;;;;;;15.90;3.70;;;17.70;99.90;;;;;;6021298;23;20031;-93
2022/04/21 10:13:26;;;;;;;19.20;3.42;;;17.60;99.90;;;;;;6015988;23;20035;-94
2022/04/21 10:15:53;;;;;;;17.45;4.35;;;17.50;99.90;;;;;;6014414;23;20019;-94
2022/04/21 10:18:31;;;;;;;18.35;3.40;;;17.30;99.90;;;;;;6016234;23;20007;-93
2022/04/21 10:21:39;;;;;;;21.70;3.45;;;17.20;99.90;;;;;;6020039;23;20011;-93
2022/04/21 10:24:44;;;;;;;17.40;3.85;;;17.10;99.90;;;;;;5973316;23;20012;-93
2022/04/21 10:27:50;;;;;;;17.27;3.20;;;17.00;99.90;;;;;;5910632;24;20018;-94
2022/04/21 10:30:45;;;;;;;15.35;3.05;;;17.00;99.90;;;;;;5891699;24;20024;-94
2022/04/21 10:33:16;;;;;;;18.05;3.50;;;17.00;99.90;;;;;;5881716;24;20012;-93
2022/04/21 10:35:58;;;;;;;15.50;3.08;;;17.00;99.90;;;;;;5879809;24;20018;-93
2022/04/21 10:38:25;;;;;;;21.80;3.40;;;17.00;99.90;;;;;;5934047;24;20211;-94
2022/04/21 10:41:12;;;;;;;20.20;3.40;;;17.10;99.90;;;;;;6006863;23;20035;-93
2022/04/21 10:43:58;;;;;;;15.25;3.55;;;17.30;99.90;;;;;;6016621;23;20066;-92
2022/04/21 10:46:29;;;;;;;16.40;3.33;;;17.50;99.90;;;;;;6016779;23;20023;-93
2022/04/21 10:48:56;;;;;;;13.75;3.00;;;17.60;99.90;;;;;;6016685;23;20110;-92
2022/04/21 10:51:41;;;;;;;12.63;3.05;;;17.40;99.90;;;;;;6016763;23;20024;-92
2022/04/21 10:57:12;;;;;;;16.27;3.05;;;17.40;99.90;;;;;;6016431;23;20023;-92
2022/04/21 11:00:27;;;;;;;12.05;2.95;;;17.50;99.90;;;;;;6030114;23;20328;-92
2022/04/21 11:03:08;;;;;;;15.48;3.13;;;17.60;99.90;;;;;;6078458;23;20018;-93
2022/04/21 11:05:38;;;;;;;18.88;3.38;;;17.40;99.90;;;;;;6161431;23;20009;-93
2022/04/21 11:08:11;;;;;;;10.20;2.63;;;17.60;99.90;;;;;;6161396;23;20005;-92
2022/04/21 11:10:42;;;;;;;12.40;3.37;;;17.60;99.90;;;;;;6161378;23;20020;-93
2022/04/21 11:13:17;;;;;;;12.70;2.88;;;17.70;99.90;;;;;;6161526;23;20009;-92
2022/04/21 11:15:49;;;;;;;;;;;18.00;99.90;;;;;;6161605;23;20001;-93
2022/04/21 11:18:28;;;;;;;13.13;3.03;;;18.00;99.90;;;;;;6161022;23;19974;-93
2022/04/21 11:21:22;;;;;;;13.75;3.30;;;18.00;99.90;;;;;;6161079;23;20120;-92
2022/04/21 11:23:49;;;;;;;10.45;3.00;;;17.90;99.90;;;;;;6136666;23;20013;-91
2022/04/21 11:26:15;;;;;;;13.50;2.97;;;18.10;99.90;;;;;;6161174;23;20013;-91
2022/04/21 11:28:46;;;;;;;13.07;3.15;;;18.00;99.90;;;;;;6160815;23;20021;-92
2022/04/21 11:31:14;;;;;;;10.00;3.03;;;18.10;99.90;;;;;;6161041;23;20009;-92
2022/04/21 11:33:45;;;;;;;11.85;3.03;;;17.80;99.90;;;;;;6215598;22;20014;-91
2022/04/21 11:36:14;;;;;;;12.00;3.40;;;17.90;99.90;;;;;;6252075;22;20014;-92
2022/04/21 11:38:43;;;;;;;13.40;3.50;;;18.00;99.90;;;;;;6252356;22;20014;-93
2022/04/21 11:41:12;;;;;;;16.98;3.40;;;17.90;99.90;;;;;;6252002;22;20003;-93
2022/04/21 11:43:51;;;;;;;14.95;3.05;;;17.90;99.90;;;;;;6252141;22;20018;-93
2022/04/21 11:46:21;;;;;;;19.13;4.75;;;17.70;99.90;;;;;;6226684;22;20038;-94
2022/04/21 11:48:58;;;;;;;13.25;3.17;;;17.60;99.90;;;;;;6251921;22;20023;-92
2022/04/21 11:51:24;;;;;;;13.63;3.72;;;17.60;99.90;;;;;;6251924;22;20011;-92
2022/04/21 11:53:52;;;;;;;14.43;3.05;;;17.60;99.90;;;;;;6251749;22;20004;-92
2022/04/21 11:56:21;;;;;;;16.75;3.25;;;17.60;99.90;;;;;;6247287;22;20111;-92
2022/04/21 11:58:49;;;;;;;17.73;4.15;;;17.40;99.90;;;;;;6226662;22;20023;-93
2022/04/21 12:06:56;;;;;;;14.00;3.28;;;17.50;99.90;;;;;;6251655;22;20089;-92
2022/04/21 12:09:25;;;;;;;12.82;3.80;;;17.50;99.90;;;;;;6226551;22;20028;-92
2022/04/21 12:11:57;;;;;;;18.42;3.22;;;17.40;99.90;;;;;;6226657;22;20039;-93
2022/04/21 12:14:25;;;;;;;10.27;3.15;;;17.40;99.90;;;;;;6227139;22;20038;-92
2022/04/21 12:17:11;;;;;;;15.10;3.45;;;17.60;99.90;;;;;;6228670;22;20434;-93
2022/04/21 12:19:46;;;;;;;12.93;3.17;;;17.70;99.90;;;;;;6228531;22;20011;-93
2022/04/21 12:22:33;;;;;;;13.23;3.10;;;17.80;99.90;;;;;;6230916;22;20022;-93
2022/04/21 12:25:00;;;;;;;7.78;3.20;;;17.70;99.90;;;;;;6226831;22;20034;-93
2022/04/21 12:27:36;;;;;;;14.70;4.07;;;17.60;99.90;;;;;;6226528;22;20004;-92
2022/04/21 12:30:05;;;;;;;9.38;3.10;;;17.40;99.90;;;;;;6228304;22;20018;-93
2022/04/21 12:32:35;;;;;;;13.30;3.33;;;17.40;99.90;;;;;;6227453;22;20087;-92
2022/04/21 12:35:06;;;;;;;12.00;3.90;;;17.40;99.90;;;;;;6226346;22;20004;-93
2022/04/21 12:37:46;;;;;;;24.15;3.83;;;17.50;99.90;;;;;;6226686;22;20015;-93
2022/04/21 12:40:14;;;;;;;10.70;3.40;;;17.60;99.90;;;;;;6226904;22;20043;-93
2022/04/21 12:42:41;;;;;;;15.20;3.30;;;17.70;99.90;;;;;;6226338;22;20024;-92
2022/04/21 12:45:09;;;;;;;17.13;3.58;;;17.60;99.90;;;;;;6226310;22;20591;-92
2022/04/21 12:47:46;;;;;;;19.85;3.38;;;17.60;99.90;;;;;;6226149;22;20091;-92
2022/04/21 12:50:24;;;;;;;16.48;4.03;;;17.60;99.90;;;;;;6226047;22;20004;-90
2022/04/21 12:52:56;;;;;;;15.93;3.45;;;17.50;99.90;;;;;;6226204;22;20016;-91
2022/04/21 12:55:30;;;;;;;14.43;3.60;;;17.40;99.90;;;;;;6225955;22;20011;-91
2022/04/21 12:59:03;;;;;;;13.85;3.45;;;17.30;99.90;;;;;;6229803;22;20018;-91
2022/04/21 13:01:54;;;;;;;13.85;3.30;;;17.20;99.90;;;;;;6257013;22;20030;-91
2022/04/21 13:04:20;;;;;;;16.80;3.63;;;16.90;99.90;;;;;;6225822;22;20008;-91
2022/04/21 13:06:46;;;;;;;20.50;4.45;;;16.90;99.90;;;;;;6226016;22;20003;-93
2022/04/21 13:09:13;;;;;;;20.75;4.57;;;16.90;99.90;;;;;;6225931;22;20460;-89
2022/04/21 13:11:39;;;;;;;21.48;4.72;;;16.90;99.90;;;;;;6225938;22;20030;-89
2022/04/21 13:14:05;;;;;;;21.20;3.97;;;16.90;99.90;;;;;;6226090;22;20012;-90
2022/04/21 13:16:32;;;;;;;21.85;4.07;;;16.90;99.90;;;;;;6226098;22;20078;-91
2022/04/21 13:18:58;;;;;;;21.27;4.07;;;17.00;99.90;;;;;;6251147;22;20056;-90
2022/04/21 13:24:09;;;;;;;19.95;3.58;;;17.10;99.90;;;;;;6251132;22;20500;-89
2022/04/21 13:26:35;;;;;;;22.17;4.40;;;17.10;99.90;;;;;;6225968;22;20007;-90
2022/04/21 13:29:02;;;;;;;28.42;4.45;;;17.10;99.90;;;;;;6225939;22;20067;-89
2022/04/21 13:34:13;;;;;;;21.20;4.65;;;16.90;99.90;;;;;;6250941;22;20011;-90
2022/04/21 13:36:39;;;;;;;20.48;4.93;;;17.00;99.90;;;;;;6225701;22;20011;-92
2022/04/21 13:39:06;;;;;;;12.52;3.63;;;17.10;99.90;;;;;;6225795;22;20007;-89
2022/04/21 13:41:32;;;;;;;19.15;4.13;;;17.10;99.90;;;;;;6225572;22;20015;-90
2022/04/21 13:43:59;;;;;;;17.98;3.80;;;17.00;99.90;;;;;;6225573;22;20004;-91
2022/04/21 13:46:27;;;;;;;16.63;3.28;;;16.90;99.90;;;;;;6225715;22;20000;-90
2022/04/21 13:48:53;;;;;;;13.85;3.47;;;17.00;99.90;;;;;;6225869;22;20008;-90
2022/04/21 13:51:19;;;;;;;16.23;3.60;;;16.90;99.90;;;;;;6225573;22;20014;-91
2022/04/21 13:53:46;;;;;;;16.25;3.72;;;17.00;99.90;;;;;;6225673;22;20005;-90
2022/04/21 13:56:16;;;;;;;18.88;4.18;;;17.10;99.90;;;;;;6232993;22;20010;-91
2022/04/21 13:58:42;;;;;;;18.98;3.55;;;17.00;99.90;;;;;;6256424;22;20011;-90
2022/04/21 14:01:08;;;;;;;17.95;3.45;;;17.20;99.90;;;;;;6281411;22;20014;-92
2022/04/21 14:03:38;;;;;;;12.20;3.65;;;17.20;99.90;;;;;;6254792;22;20011;-89
2022/04/21 14:06:08;;;;;;;20.75;4.00;;;17.00;99.90;;;;;;6280763;22;20011;-89
2022/04/21 14:08:37;;;;;;;23.70;4.15;;;16.80;99.90;;;;;;6255739;22;20391;-90
2022/04/21 14:11:05;;;;;;;14.65;3.47;;;16.90;99.90;;;;;;6255870;22;20003;-89
2022/04/21 14:13:32;;;;;;;21.02;4.03;;;16.90;99.90;;;;;;6281556;22;20014;-90
2022/04/21 14:16:00;;;;;;;14.77;3.40;;;16.90;99.90;;;;;;6255860;22;20026;-91
2022/04/21 14:18:27;;;;;;;15.68;3.45;;;16.90;99.90;;;;;;6256431;22;20035;-92
2022/04/21 14:20:55;;;;;;;15.55;3.10;;;17.00;99.90;;;;;;6256081;22;20011;-91
2022/04/21 14:23:24;;;;;;;12.80;3.90;;;17.00;99.90;;;;;;6255853;22;20018;-90
2022/04/21 14:25:52;;;;;;;19.35;3.70;;;17.10;99.90;;;;;;6281562;22;20031;-89
2022/04/21 14:28:18;;;;;;;18.73;3.38;;;16.90;99.90;;;;;;6256116;22;20432;-90
2022/04/21 14:30:45;;;;;;;17.67;3.50;;;16.90;99.90;;;;;;6255944;22;20436;-90
2022/04/21 14:33:11;;;;;;;19.23;3.53;;;16.90;99.90;;;;;;6282050;22;20013;-89
2022/04/21 14:35:38;;;;;;;10.45;3.28;;;16.70;99.90;;;;;;6282002;22;20041;-90
2022/04/21 14:46:21;;;;;;;13.13;3.40;;;17.00;99.90;;;;;;6281514;22;20007;-90
2022/04/21 14:48:47;;;;;;;11.15;3.13;;;17.00;99.90;;;;;;6256040;22;20003;-91
2022/04/21 14:51:14;;;;;;;14.02;3.40;;;17.00;99.90;;;;;;6281548;22;20018;-89
2022/04/21 14:53:44;;;;;;;22.02;3.03;;;16.90;99.90;;;;;;6281209;22;20096;-89
2022/04/21 14:56:11;;;;;;;12.90;3.15;;;16.90;99.90;;;;;;6281027;22;20094;-89
2022/04/21 14:58:37;;;;;;;16.02;3.58;;;16.90;99.90;;;;;;6281254;22;20014;-89
2022/04/21 15:01:05;;;;;;;13.55;3.35;;;16.90;99.90;;;;;;6281294;22;20007;-88